sensor_id;sensor_type;location;lat;lon;timestamp;P1;durP1;ratioP1;P2;durP2;ratioP2
67051;SDS011;53957;47.222;18.670;2023-03-29T00:00:11;2.08;;;1.92;;
67051;SDS011;53957;47.222;18.670;2023-03-29T00:03:21;2.35;;;2.25;;
67051;SDS011;53957;47.222;18.670;2023-03-29T00:06:47;2.22;;;2.00;;
67051;SDS011;53957;47.222;18.670;2023-03-29T00:09:57;1.73;;;1.73;;
67051;SDS011;53957;47.222;18.670;2023-03-29T00:13:18;1.98;;;1.87;;
67051;SDS011;53957;47.222;18.670;2023-03-29T00:16:25;2.72;;;1.92;;
67051;SDS011;53957;47.222;18.670;2023-03-29T00:19:38;2.12;;;2.03;;
67051;SDS011;53957;47.222;18.670;2023-03-29T00:22:42;3.62;;;2.47;;
67051;SDS011;53957;47.222;18.670;2023-03-29T00:25:51;3.58;;;2.10;;
67051;SDS011;53957;47.222;18.670;2023-03-29T00:29:17;3.47;;;2.20;;
67051;SDS011;53957;47.222;18.670;2023-03-29T00:32:21;2.47;;;2.28;;
67051;SDS011;53957;47.222;18.670;2023-03-29T00:35:32;2.70;;;2.22;;
67051;SDS011;53957;47.222;18.670;2023-03-29T00:39:16;3.78;;;2.37;;
67051;SDS011;53957;47.222;18.670;2023-03-29T00:42:45;2.12;;;1.92;;
67051;SDS011;53957;47.222;18.670;2023-03-29T00:46:09;2.30;;;2.10;;
67051;SDS011;53957;47.222;18.670;2023-03-29T00:49:16;2.12;;;2.00;;
67051;SDS011;53957;47.222;18.670;2023-03-29T00:52:42;2.50;;;2.28;;
67051;SDS011;53957;47.222;18.670;2023-03-29T00:56:03;2.80;;;2.08;;
67051;SDS011;53957;47.222;18.670;2023-03-29T00:59:12;4.68;;;2.08;;
67051;SDS011;53957;47.222;18.670;2023-03-29T01:02:21;2.92;;;2.37;;
67051;SDS011;53957;47.222;18.670;2023-03-29T01:05:50;2.87;;;2.62;;
67051;SDS011;53957;47.222;18.670;2023-03-29T01:09:07;2.25;;;2.03;;
67051;SDS011;53957;47.222;18.670;2023-03-29T01:12:34;2.30;;;2.10;;
67051;SDS011;53957;47.222;18.670;2023-03-29T01:15:55;2.17;;;2.08;;
67051;SDS011;53957;47.222;18.670;2023-03-29T04:09:15;64.72;;;23.62;;
67051;SDS011;53957;47.222;18.670;2023-03-29T04:12:30;76.70;;;28.70;;
67051;SDS011;53957;47.222;18.670;2023-03-29T04:15:35;69.30;;;28.60;;
67051;SDS011;53957;47.222;18.670;2023-03-29T04:18:41;66.80;;;26.27;;
67051;SDS011;53957;47.222;18.670;2023-03-29T04:21:49;52.72;;;19.50;;
67051;SDS011;53957;47.222;18.670;2023-03-29T04:24:55;64.15;;;23.15;;
67051;SDS011;53957;47.222;18.670;2023-03-29T04:28:02;62.03;;;28.30;;
67051;SDS011;53957;47.222;18.670;2023-03-29T04:31:26;70.07;;;27.13;;
67051;SDS011;53957;47.222;18.670;2023-03-29T04:34:32;67.82;;;29.35;;
67051;SDS011;53957;47.222;18.670;2023-03-29T04:37:40;57.55;;;22.35;;
67051;SDS011;53957;47.222;18.670;2023-03-29T04:40:45;51.20;;;20.73;;
67051;SDS011;53957;47.222;18.670;2023-03-29T04:44:12;57.20;;;23.42;;
67051;SDS011;53957;47.222;18.670;2023-03-29T04:47:37;54.50;;;21.85;;
67051;SDS011;53957;47.222;18.670;2023-03-29T04:50:45;52.90;;;17.62;;
67051;SDS011;53957;47.222;18.670;2023-03-29T04:53:48;41.60;;;21.83;;
67051;SDS011;53957;47.222;18.670;2023-03-29T04:56:52;44.83;;;18.05;;
67051;SDS011;53957;47.222;18.670;2023-03-29T04:59:57;30.00;;;14.80;;
67051;SDS011;53957;47.222;18.670;2023-03-29T05:03:10;25.30;;;12.45;;
67051;SDS011;53957;47.222;18.670;2023-03-29T05:06:16;24.45;;;11.63;;
67051;SDS011;53957;47.222;18.670;2023-03-29T05:09:26;18.58;;;10.43;;
67051;SDS011;53957;47.222;18.670;2023-03-29T05:12:29;23.83;;;10.15;;
67051;SDS011;53957;47.222;18.670;2023-03-29T05:15:37;31.50;;;12.05;;
67051;SDS011;53957;47.222;18.670;2023-03-29T05:18:44;17.15;;;10.13;;
67051;SDS011;53957;47.222;18.670;2023-03-29T05:21:49;20.20;;;9.82;;
67051;SDS011;53957;47.222;18.670;2023-03-29T05:24:54;18.83;;;8.30;;
67051;SDS011;53957;47.222;18.670;2023-03-29T05:28:01;13.40;;;5.97;;
67051;SDS011;53957;47.222;18.670;2023-03-29T05:31:06;5.78;;;5.20;;
67051;SDS011;53957;47.222;18.670;2023-03-29T05:34:11;9.02;;;5.37;;
67051;SDS011;53957;47.222;18.670;2023-03-29T05:37:14;7.03;;;6.10;;
67051;SDS011;53957;47.222;18.670;2023-03-29T05:40:20;8.27;;;7.03;;
67051;SDS011;53957;47.222;18.670;2023-03-29T05:43:25;8.63;;;7.00;;
67051;SDS011;53957;47.222;18.670;2023-03-29T05:46:34;9.48;;;6.32;;
67051;SDS011;53957;47.222;18.670;2023-03-29T05:49:37;8.43;;;5.70;;
67051;SDS011;53957;47.222;18.670;2023-03-29T05:52:46;7.40;;;5.97;;
67051;SDS011;53957;47.222;18.670;2023-03-29T05:56:09;10.50;;;5.45;;
67051;SDS011;53957;47.222;18.670;2023-03-29T05:59:14;7.78;;;5.07;;
67051;SDS011;53957;47.222;18.670;2023-03-29T06:02:19;10.00;;;5.65;;
67051;SDS011;53957;47.222;18.670;2023-03-29T06:05:25;9.45;;;6.07;;
67051;SDS011;53957;47.222;18.670;2023-03-29T06:08:30;12.82;;;5.68;;
67051;SDS011;53957;47.222;18.670;2023-03-29T06:11:35;32.17;;;17.85;;
67051;SDS011;53957;47.222;18.670;2023-03-29T06:14:43;10.25;;;6.28;;
67051;SDS011;53957;47.222;18.670;2023-03-29T06:17:48;9.30;;;4.70;;
67051;SDS011;53957;47.222;18.670;2023-03-29T06:20:56;7.22;;;5.50;;
67051;SDS011;53957;47.222;18.670;2023-03-29T06:24:03;7.05;;;4.70;;
67051;SDS011;53957;47.222;18.670;2023-03-29T06:27:07;6.62;;;4.20;;
67051;SDS011;53957;47.222;18.670;2023-03-29T06:30:11;6.65;;;4.10;;
67051;SDS011;53957;47.222;18.670;2023-03-29T06:33:19;9.52;;;5.00;;
67051;SDS011;53957;47.222;18.670;2023-03-29T06:36:23;5.87;;;4.05;;
67051;SDS011;53957;47.222;18.670;2023-03-29T06:39:36;8.48;;;5.55;;
67051;SDS011;53957;47.222;18.670;2023-03-29T06:42:44;6.72;;;5.50;;
67051;SDS011;53957;47.222;18.670;2023-03-29T06:45:55;9.25;;;5.18;;
67051;SDS011;53957;47.222;18.670;2023-03-29T06:49:07;15.10;;;5.97;;
67051;SDS011;53957;47.222;18.670;2023-03-29T06:52:16;12.13;;;7.18;;
67051;SDS011;53957;47.222;18.670;2023-03-29T06:55:27;25.37;;;9.05;;
67051;SDS011;53957;47.222;18.670;2023-03-29T06:58:39;16.05;;;7.78;;
67051;SDS011;53957;47.222;18.670;2023-03-29T07:01:45;15.25;;;8.25;;
67051;SDS011;53957;47.222;18.670;2023-03-29T07:04:52;10.85;;;6.43;;
67051;SDS011;53957;47.222;18.670;2023-03-29T17:40:12;24.80;;;10.82;;
67051;SDS011;53957;47.222;18.670;2023-03-29T17:43:56;9.27;;;6.55;;
67051;SDS011;53957;47.222;18.670;2023-03-29T17:47:47;11.32;;;7.28;;
67051;SDS011;53957;47.222;18.670;2023-03-29T17:51:12;42.60;;;24.27;;
67051;SDS011;53957;47.222;18.670;2023-03-29T17:54:16;13.52;;;10.00;;
67051;SDS011;53957;47.222;18.670;2023-03-29T17:57:41;5.57;;;3.40;;
67051;SDS011;53957;47.222;18.670;2023-03-29T18:04:09;3.40;;;3.03;;
67051;SDS011;53957;47.222;18.670;2023-03-29T18:07:13;8.07;;;4.05;;
67051;SDS011;53957;47.222;18.670;2023-03-29T18:10:18;5.70;;;3.95;;
67051;SDS011;53957;47.222;18.670;2023-03-29T18:14:01;5.80;;;4.40;;
67051;SDS011;53957;47.222;18.670;2023-03-29T18:17:12;6.37;;;4.47;;
67051;SDS011;53957;47.222;18.670;2023-03-29T18:20:15;9.65;;;4.12;;
67051;SDS011;53957;47.222;18.670;2023-03-29T18:23:46;4.12;;;3.72;;
67051;SDS011;53957;47.222;18.670;2023-03-29T18:27:30;5.57;;;3.70;;
67051;SDS011;53957;47.222;18.670;2023-03-29T18:30:54;3.35;;;3.03;;
67051;SDS011;53957;47.222;18.670;2023-03-29T18:34:21;7.37;;;3.85;;
67051;SDS011;53957;47.222;18.670;2023-03-29T18:37:35;6.20;;;4.68;;
67051;SDS011;53957;47.222;18.670;2023-03-29T18:40:39;8.90;;;4.37;;
67051;SDS011;53957;47.222;18.670;2023-03-29T18:43:43;19.58;;;9.32;;
67051;SDS011;53957;47.222;18.670;2023-03-29T18:46:46;10.63;;;6.87;;
67051;SDS011;53957;47.222;18.670;2023-03-29T18:50:10;11.05;;;6.37;;
67051;SDS011;53957;47.222;18.670;2023-03-29T18:53:34;5.05;;;3.97;;
67051;SDS011;53957;47.222;18.670;2023-03-29T18:57:18;5.25;;;3.60;;
67051;SDS011;53957;47.222;18.670;2023-03-29T19:00:41;4.35;;;3.42;;
67051;SDS011;53957;47.222;18.670;2023-03-29T19:03:51;3.77;;;3.30;;
67051;SDS011;53957;47.222;18.670;2023-03-29T19:07:34;3.72;;;3.33;;
67051;SDS011;53957;47.222;18.670;2023-03-29T19:10:38;5.12;;;3.35;;
67051;SDS011;53957;47.222;18.670;2023-03-29T19:14:21;5.50;;;4.15;;
67051;SDS011;53957;47.222;18.670;2023-03-29T19:17:47;3.75;;;3.45;;
67051;SDS011;53957;47.222;18.670;2023-03-29T19:20:50;5.65;;;3.20;;
67051;SDS011;53957;47.222;18.670;2023-03-29T19:23:56;5.20;;;3.55;;
67051;SDS011;53957;47.222;18.670;2023-03-29T19:27:21;4.25;;;3.83;;
67051;SDS011;53957;47.222;18.670;2023-03-29T19:31:06;3.78;;;3.40;;
67051;SDS011;53957;47.222;18.670;2023-03-29T19:34:49;4.68;;;3.55;;
67051;SDS011;53957;47.222;18.670;2023-03-29T19:37:53;7.18;;;5.10;;
67051;SDS011;53957;47.222;18.670;2023-03-29T19:40:55;7.20;;;4.82;;
67051;SDS011;53957;47.222;18.670;2023-03-29T19:44:59;5.75;;;4.30;;
67051;SDS011;53957;47.222;18.670;2023-03-29T19:48:02;9.45;;;4.35;;
67051;SDS011;53957;47.222;18.670;2023-03-29T19:52:05;5.15;;;3.42;;
